sensor_id;sensor_type;location;lat;lon;timestamp;pressure;altitude;pressure_sealevel;temperature;humidity
62164;BME280;48149;51.132;7.178;2023-04-23T00:00:19;97928.31;;;25.82;44.36
62164;BME280;48149;51.132;7.178;2023-04-23T00:02:45;97922.41;;;25.56;43.41
62164;BME280;48149;51.132;7.178;2023-04-23T00:14:22;97910.41;;;26.27;41.03
62164;BME280;48149;51.132;7.178;2023-04-23T00:16:48;97913.19;;;27.00;40.03
62164;BME280;48149;51.132;7.178;2023-04-23T00:19:13;97914.75;;;27.13;39.30
62164;BME280;48149;51.132;7.178;2023-04-23T00:21:38;97922.41;;;26.54;40.61
62164;BME280;48149;51.132;7.178;2023-04-23T00:24:04;97925.66;;;26.15;41.81
62164;BME280;48149;51.132;7.178;2023-04-23T00:26:29;97910.50;;;26.88;40.46
62164;BME280;48149;51.132;7.178;2023-04-23T00:28:54;97913.94;;;26.76;40.23
62164;BME280;48149;51.132;7.178;2023-04-23T00:31:19;97916.09;;;26.95;39.83
62164;BME280;48149;51.132;7.178;2023-04-23T00:33:46;97915.41;;;26.98;39.82
62164;BME280;48149;51.132;7.178;2023-04-23T00:36:11;97912.50;;;26.79;40.13
62164;BME280;48149;51.132;7.178;2023-04-23T00:38:37;97918.34;;;26.81;40.10
62164;BME280;48149;51.132;7.178;2023-04-23T00:41:02;97926.16;;;26.86;39.64
62164;BME280;48149;51.132;7.178;2023-04-23T00:43:27;97920.47;;;26.18;41.24
62164;BME280;48149;51.132;7.178;2023-04-23T00:45:53;97916.25;;;26.41;40.72
62164;BME280;48149;51.132;7.178;2023-04-23T00:48:18;97908.69;;;26.80;40.10
62164;BME280;48149;51.132;7.178;2023-04-23T00:50:45;97909.97;;;26.25;40.07
62164;BME280;48149;51.132;7.178;2023-04-23T00:53:10;97908.16;;;26.86;39.71
62164;BME280;48149;51.132;7.178;2023-04-23T00:55:35;97905.31;;;26.46;40.06
62164;BME280;48149;51.132;7.178;2023-04-23T00:58:01;97899.03;;;25.15;43.26
62164;BME280;48149;51.132;7.178;2023-04-23T01:00:26;97896.56;;;25.51;43.62
62164;BME280;48149;51.132;7.178;2023-04-23T01:05:27;97899.53;;;25.29;43.12
62164;BME280;48149;51.132;7.178;2023-04-23T01:07:52;97898.22;;;25.64;42.92
62164;BME280;48149;51.132;7.178;2023-04-23T01:10:18;97906.44;;;25.80;42.83
62164;BME280;48149;51.132;7.178;2023-04-23T01:12:43;97904.97;;;25.50;42.63
62164;BME280;48149;51.132;7.178;2023-04-23T01:15:09;97900.78;;;25.93;42.17
62164;BME280;48149;51.132;7.178;2023-04-23T01:17:34;97899.69;;;25.12;43.92
62164;BME280;48149;51.132;7.178;2023-04-23T01:19:59;97900.94;;;25.06;43.10
62164;BME280;48149;51.132;7.178;2023-04-23T01:22:25;97896.78;;;25.37;43.38
62164;BME280;48149;51.132;7.178;2023-04-23T01:24:50;97900.31;;;25.91;41.82
62164;BME280;48149;51.132;7.178;2023-04-23T01:27:16;97893.84;;;24.72;44.13
62164;BME280;48149;51.132;7.178;2023-04-23T01:29:43;97895.91;;;24.28;45.22
62164;BME280;48149;51.132;7.178;2023-04-23T01:32:09;97899.53;;;25.08;43.25
62164;BME280;48149;51.132;7.178;2023-04-23T01:34:35;97895.59;;;25.06;44.28
62164;BME280;48149;51.132;7.178;2023-04-23T01:37:01;97900.09;;;24.47;46.15
62164;BME280;48149;51.132;7.178;2023-04-23T01:39:27;97886.16;;;24.70;44.67
62164;BME280;48149;51.132;7.178;2023-04-23T01:41:52;97889.00;;;24.02;46.10
62164;BME280;48149;51.132;7.178;2023-04-23T01:44:18;97900.19;;;24.04;46.18
62164;BME280;48149;51.132;7.178;2023-04-23T01:46:43;97904.88;;;24.32;46.53
62164;BME280;48149;51.132;7.178;2023-04-23T01:49:08;97892.59;;;24.31;45.39
62164;BME280;48149;51.132;7.178;2023-04-23T01:51:33;97897.25;;;25.19;44.13
62164;BME280;48149;51.132;7.178;2023-04-23T01:53:59;97897.47;;;24.38;45.27
62164;BME280;48149;51.132;7.178;2023-04-23T01:56:26;97897.38;;;23.92;47.17
62164;BME280;48149;51.132;7.178;2023-04-23T01:58:51;97900.59;;;24.78;44.58
62164;BME280;48149;51.132;7.178;2023-04-23T02:01:16;97905.72;;;23.81;45.71
62164;BME280;48149;51.132;7.178;2023-04-23T02:03:42;97900.66;;;24.23;45.89
62164;BME280;48149;51.132;7.178;2023-04-23T02:06:07;97909.81;;;23.53;48.81
62164;BME280;48149;51.132;7.178;2023-04-23T02:08:33;97904.09;;;24.70;45.44
62164;BME280;48149;51.132;7.178;2023-04-23T02:10:59;97904.16;;;23.80;46.89
62164;BME280;48149;51.132;7.178;2023-04-23T02:13:24;97895.66;;;24.13;46.20
62164;BME280;48149;51.132;7.178;2023-04-23T02:15:50;97892.69;;;23.63;47.26
62164;BME280;48149;51.132;7.178;2023-04-23T02:18:15;97891.44;;;23.69;47.39
62164;BME280;48149;51.132;7.178;2023-04-23T02:20:40;97890.78;;;23.80;47.46
62164;BME280;48149;51.132;7.178;2023-04-23T02:23:06;97884.34;;;22.73;49.86
62164;BME280;48149;51.132;7.178;2023-04-23T02:25:32;97882.84;;;22.98;50.95
62164;BME280;48149;51.132;7.178;2023-04-23T02:27:57;97886.06;;;23.26;49.03
62164;BME280;48149;51.132;7.178;2023-04-23T02:30:25;97889.81;;;24.11;47.03
62164;BME280;48149;51.132;7.178;2023-04-23T02:32:50;97887.81;;;23.82;46.40
62164;BME280;48149;51.132;7.178;2023-04-23T02:35:16;97884.50;;;23.85;47.13
62164;BME280;48149;51.132;7.178;2023-04-23T02:37:41;97886.72;;;23.66;48.56
62164;BME280;48149;51.132;7.178;2023-04-23T02:40:07;97887.19;;;23.59;48.15
62164;BME280;48149;51.132;7.178;2023-04-23T02:42:33;97890.94;;;23.84;47.63
62164;BME280;48149;51.132;7.178;2023-04-23T02:44:58;97887.94;;;23.25;48.52
62164;BME280;48149;51.132;7.178;2023-04-23T02:47:23;97889.22;;;23.88;46.68
62164;BME280;48149;51.132;7.178;2023-04-23T02:49:48;97888.59;;;23.74;47.15
62164;BME280;48149;51.132;7.178;2023-04-23T02:52:14;97892.50;;;23.33;47.67
62164;BME280;48149;51.132;7.178;2023-04-23T02:54:39;97885.72;;;23.27;47.61
62164;BME280;48149;51.132;7.178;2023-04-23T02:57:04;97892.84;;;23.58;47.49
62164;BME280;48149;51.132;7.178;2023-04-23T02:59:30;97891.28;;;22.83;48.57
62164;BME280;48149;51.132;7.178;2023-04-23T03:01:55;97887.72;;;22.96;48.33
62164;BME280;48149;51.132;7.178;2023-04-23T03:04:20;97885.84;;;23.14;48.90
62164;BME280;48149;51.132;7.178;2023-04-23T03:06:47;97887.94;;;23.25;49.03
62164;BME280;48149;51.132;7.178;2023-04-23T03:09:12;97887.25;;;22.94;50.14
62164;BME280;48149;51.132;7.178;2023-04-23T03:11:38;97887.03;;;23.56;46.84
62164;BME280;48149;51.132;7.178;2023-04-23T03:14:03;97887.88;;;22.91;49.73
62164;BME280;48149;51.132;7.178;2023-04-23T03:16:29;97884.84;;;22.45;50.67
62164;BME280;48149;51.132;7.178;2023-04-23T03:18:55;97879.72;;;22.26;53.33
62164;BME280;48149;51.132;7.178;2023-04-23T03:21:20;97886.47;;;21.57;55.47
62164;BME280;48149;51.132;7.178;2023-04-23T03:23:46;97872.97;;;22.20;54.02
62164;BME280;48149;51.132;7.178;2023-04-23T03:26:11;97876.28;;;21.81;55.28
62164;BME280;48149;51.132;7.178;2023-04-23T03:28:36;97884.97;;;21.64;54.77
62164;BME280;48149;51.132;7.178;2023-04-23T03:31:01;97870.41;;;22.46;54.76
62164;BME280;48149;51.132;7.178;2023-04-23T03:33:27;97864.78;;;21.72;55.45
62164;BME280;48149;51.132;7.178;2023-04-23T03:35:52;97871.34;;;21.88;54.79
62164;BME280;48149;51.132;7.178;2023-04-23T03:38:17;97866.19;;;22.84;51.37
62164;BME280;48149;51.132;7.178;2023-04-23T03:40:43;97873.69;;;22.82;50.98
62164;BME280;48149;51.132;7.178;2023-04-23T03:43:09;97871.91;;;23.25;48.13
62164;BME280;48149;51.132;7.178;2023-04-23T03:45:34;97859.47;;;23.04;50.16
62164;BME280;48149;51.132;7.178;2023-04-23T03:47:59;97871.50;;;22.45;49.50
62164;BME280;48149;51.132;7.178;2023-04-23T03:50:25;97865.19;;;22.32;50.88
62164;BME280;48149;51.132;7.178;2023-04-23T03:52:50;97865.91;;;22.55;51.14
62164;BME280;48149;51.132;7.178;2023-04-23T03:55:15;97867.53;;;21.80;54.26
62164;BME280;48149;51.132;7.178;2023-04-23T03:57:40;97865.91;;;22.15;53.30
62164;BME280;48149;51.132;7.178;2023-04-23T04:00:06;97873.03;;;21.40;55.29
62164;BME280;48149;51.132;7.178;2023-04-23T04:02:32;97862.19;;;22.25;52.86
62164;BME280;48149;51.132;7.178;2023-04-23T04:04:57;97862.13;;;21.72;55.20
62164;BME280;48149;51.132;7.178;2023-04-23T04:07:22;97857.00;;;22.59;49.26
62164;BME280;48149;51.132;7.178;2023-04-23T04:09:48;97849.16;;;22.23;53.41
62164;BME280;48149;51.132;7.178;2023-04-23T04:12:13;97864.09;;;22.02;53.46
62164;BME280;48149;51.132;7.178;2023-04-23T04:14:39;97866.16;;;21.83;52.54
62164;BME280;48149;51.132;7.178;2023-04-23T04:17:04;97869.50;;;22.19;51.27
62164;BME280;48149;51.132;7.178;2023-04-23T04:19:29;97857.75;;;21.90;52.42
62164;BME280;48149;51.132;7.178;2023-04-23T04:21:54;97864.38;;;22.31;53.59
62164;BME280;48149;51.132;7.178;2023-04-23T04:24:20;97861.63;;;21.25;54.54
62164;BME280;48149;51.132;7.178;2023-04-23T04:26:45;97864.44;;;21.87;54.35
62164;BME280;48149;51.132;7.178;2023-04-23T04:29:11;97864.03;;;21.13;56.87
62164;BME280;48149;51.132;7.178;2023-04-23T04:31:36;97858.75;;;22.02;55.63
62164;BME280;48149;51.132;7.178;2023-04-23T04:34:02;97862.53;;;21.21;56.15
62164;BME280;48149;51.132;7.178;2023-04-23T04:36:27;97856.47;;;21.65;55.29
62164;BME280;48149;51.132;7.178;2023-04-23T04:38:53;97864.38;;;21.78;55.31
62164;BME280;48149;51.132;7.178;2023-04-23T04:41:24;97853.63;;;21.61;54.98
62164;BME280;48149;51.132;7.178;2023-04-23T04:43:50;97853.66;;;22.14;53.64
62164;BME280;48149;51.132;7.178;2023-04-23T04:46:16;97863.91;;;21.76;53.83
62164;BME280;48149;51.132;7.178;2023-04-23T04:48:44;97860.28;;;23.21;50.78
62164;BME280;48149;51.132;7.178;2023-04-23T04:51:09;97860.09;;;22.22;50.94
62164;BME280;48149;51.132;7.178;2023-04-23T04:53:34;97863.16;;;21.62;53.15
62164;BME280;48149;51.132;7.178;2023-04-23T04:56:00;97864.25;;;22.76;51.93
62164;BME280;48149;51.132;7.178;2023-04-23T04:58:25;97872.38;;;23.36;47.90
62164;BME280;48149;51.132;7.178;2023-04-23T05:00:50;97868.53;;;22.85;50.49
62164;BME280;48149;51.132;7.178;2023-04-23T05:03:16;97869.59;;;21.25;56.67
62164;BME280;48149;51.132;7.178;2023-04-23T05:05:41;97869.31;;;22.86;53.63
62164;BME280;48149;51.132;7.178;2023-04-23T05:08:07;97868.06;;;22.75;52.65
62164;BME280;48149;51.132;7.178;2023-04-23T05:10:33;97864.38;;;23.27;49.78
62164;BME280;48149;51.132;7.178;2023-04-23T05:15:28;97871.00;;;23.73;50.84
62164;BME280;48149;51.132;7.178;2023-04-23T05:17:53;97874.59;;;23.43;49.38
62164;BME280;48149;51.132;7.178;2023-04-23T05:20:18;97871.41;;;23.06;51.86
62164;BME280;48149;51.132;7.178;2023-04-23T05:22:43;97873.75;;;22.91;53.88
62164;BME280;48149;51.132;7.178;2023-04-23T05:25:09;97875.72;;;23.76;50.71
62164;BME280;48149;51.132;7.178;2023-04-23T05:27:35;97874.41;;;23.99;48.99
62164;BME280;48149;51.132;7.178;2023-04-23T05:30:01;97871.75;;;23.90;47.31
62164;BME280;48149;51.132;7.178;2023-04-23T05:32:26;97867.81;;;23.88;49.18
62164;BME280;48149;51.132;7.178;2023-04-23T05:34:52;97879.75;;;23.99;48.59
62164;BME280;48149;51.132;7.178;2023-04-23T05:37:17;97880.31;;;25.06;46.45
62164;BME280;48149;51.132;7.178;2023-04-23T05:39:43;97877.16;;;25.75;43.55
62164;BME280;48149;51.132;7.178;2023-04-23T05:42:08;97875.69;;;25.77;44.27
62164;BME280;48149;51.132;7.178;2023-04-23T05:47:01;97876.25;;;25.00;45.94
62164;BME280;48149;51.132;7.178;2023-04-23T05:49:26;97883.06;;;24.60;47.55
62164;BME280;48149;51.132;7.178;2023-04-23T05:51:51;97876.53;;;25.90;44.25
62164;BME280;48149;51.132;7.178;2023-04-23T05:54:17;97874.41;;;25.21;45.02
62164;BME280;48149;51.132;7.178;2023-04-23T05:56:43;97869.97;;;24.29;47.63
62164;BME280;48149;51.132;7.178;2023-04-23T05:59:08;97877.72;;;25.39;45.65
62164;BME280;48149;51.132;7.178;2023-04-23T06:01:33;97874.94;;;25.89;44.70
62164;BME280;48149;51.132;7.178;2023-04-23T06:03:58;97878.97;;;25.83;45.64
62164;BME280;48149;51.132;7.178;2023-04-23T06:06:24;97875.31;;;26.32;43.03
62164;BME280;48149;51.132;7.178;2023-04-23T06:08:49;97875.69;;;26.10;43.11
62164;BME280;48149;51.132;7.178;2023-04-23T06:11:15;97888.25;;;26.18;41.99
62164;BME280;48149;51.132;7.178;2023-04-23T06:13:40;97878.16;;;25.41;45.04
62164;BME280;48149;51.132;7.178;2023-04-23T06:16:07;97879.28;;;24.61;47.61
62164;BME280;48149;51.132;7.178;2023-04-23T06:18:32;97880.38;;;26.13;43.08
62164;BME280;48149;51.132;7.178;2023-04-23T06:20:58;97879.81;;;26.77;42.40
62164;BME280;48149;51.132;7.178;2023-04-23T06:23:28;97878.66;;;25.43;45.11
62164;BME280;48149;51.132;7.178;2023-04-23T06:25:53;97864.56;;;26.32;42.69
62164;BME280;48149;51.132;7.178;2023-04-23T06:28:18;97872.19;;;26.30;41.27
62164;BME280;48149;51.132;7.178;2023-04-23T06:30:44;97865.00;;;24.86;47.18
62164;BME280;48149;51.132;7.178;2023-04-23T06:33:09;97855.84;;;26.47;43.45
62164;BME280;48149;51.132;7.178;2023-04-23T06:35:35;97856.94;;;26.22;43.35
62164;BME280;48149;51.132;7.178;2023-04-23T06:38:00;97853.41;;;26.67;42.50
62164;BME280;48149;51.132;7.178;2023-04-23T06:40:25;97860.34;;;26.80;40.46
62164;BME280;48149;51.132;7.178;2023-04-23T06:42:51;97852.41;;;26.47;41.82
62164;BME280;48149;51.132;7.178;2023-04-23T06:45:16;97857.97;;;25.02;46.71
62164;BME280;48149;51.132;7.178;2023-04-23T06:47:42;97857.31;;;27.06;43.37
62164;BME280;48149;51.132;7.178;2023-04-23T06:50:07;97860.41;;;25.36;45.39
62164;BME280;48149;51.132;7.178;2023-04-23T06:52:32;97874.16;;;25.06;46.99
62164;BME280;48149;51.132;7.178;2023-04-23T06:54:58;97864.97;;;25.15;49.77
62164;BME280;48149;51.132;7.178;2023-04-23T06:57:23;97864.81;;;26.39;45.17
62164;BME280;48149;51.132;7.178;2023-04-23T06:59:48;97871.53;;;27.06;42.51
62164;BME280;48149;51.132;7.178;2023-04-23T07:02:13;97855.41;;;26.45;43.59
62164;BME280;48149;51.132;7.178;2023-04-23T07:07:06;97858.63;;;27.24;41.20
62164;BME280;48149;51.132;7.178;2023-04-23T07:09:32;97866.88;;;25.77;42.03
62164;BME280;48149;51.132;7.178;2023-04-23T07:11:57;97863.22;;;26.26;43.08
62164;BME280;48149;51.132;7.178;2023-04-23T07:14:23;97853.41;;;26.67;42.22
62164;BME280;48149;51.132;7.178;2023-04-23T07:16:49;97856.16;;;25.56;45.36
62164;BME280;48149;51.132;7.178;2023-04-23T07:19:15;97836.94;;;26.32;44.91
62164;BME280;48149;51.132;7.178;2023-04-23T07:21:41;97838.75;;;27.00;42.84
62164;BME280;48149;51.132;7.178;2023-04-23T07:24:06;97829.13;;;27.39;41.24
62164;BME280;48149;51.132;7.178;2023-04-23T07:26:32;97828.72;;;27.25;42.88
62164;BME280;48149;51.132;7.178;2023-04-23T07:28:57;97844.75;;;24.68;47.55
62164;BME280;48149;51.132;7.178;2023-04-23T07:31:22;97839.19;;;25.52;46.79
62164;BME280;48149;51.132;7.178;2023-04-23T07:33:48;97844.78;;;25.92;46.09
62164;BME280;48149;51.132;7.178;2023-04-23T07:36:13;97846.56;;;26.45;43.78
62164;BME280;48149;51.132;7.178;2023-04-23T07:38:38;97832.66;;;24.24;48.19
62164;BME280;48149;51.132;7.178;2023-04-23T07:41:04;97831.75;;;26.03;46.26
62164;BME280;48149;51.132;7.178;2023-04-23T07:43:29;97833.25;;;26.73;44.75
62164;BME280;48149;51.132;7.178;2023-04-23T07:45:54;97830.59;;;25.91;44.66
62164;BME280;48149;51.132;7.178;2023-04-23T07:48:20;97825.28;;;27.52;42.74
62164;BME280;48149;51.132;7.178;2023-04-23T07:50:45;97818.63;;;26.58;41.44
62164;BME280;48149;51.132;7.178;2023-04-23T07:53:10;97829.28;;;27.31;40.66
62164;BME280;48149;51.132;7.178;2023-04-23T07:55:37;97824.13;;;26.49;42.26
62164;BME280;48149;51.132;7.178;2023-04-23T07:58:02;97827.22;;;26.51;43.93
62164;BME280;48149;51.132;7.178;2023-04-23T08:00:28;97822.22;;;25.93;42.35
62164;BME280;48149;51.132;7.178;2023-04-23T08:02:53;97827.84;;;26.00;44.65
62164;BME280;48149;51.132;7.178;2023-04-23T08:05:18;97818.72;;;26.86;42.41
62164;BME280;48149;51.132;7.178;2023-04-23T08:07:45;97816.59;;;27.71;39.32
62164;BME280;48149;51.132;7.178;2023-04-23T08:10:10;97804.94;;;28.73;37.39
62164;BME280;48149;51.132;7.178;2023-04-23T08:12:35;97805.25;;;27.50;40.49
62164;BME280;48149;51.132;7.178;2023-04-23T08:15:01;97812.53;;;30.02;36.51
62164;BME280;48149;51.132;7.178;2023-04-23T08:17:26;97807.69;;;28.77;38.17
62164;BME280;48149;51.132;7.178;2023-04-23T08:19:51;97809.91;;;26.49;41.05
62164;BME280;48149;51.132;7.178;2023-04-23T08:22:16;97812.41;;;28.48;38.85
62164;BME280;48149;51.132;7.178;2023-04-23T08:24:42;97805.25;;;27.93;40.38
62164;BME280;48149;51.132;7.178;2023-04-23T08:27:08;97810.19;;;27.36;39.85
62164;BME280;48149;51.132;7.178;2023-04-23T08:29:33;97807.59;;;27.95;39.52
62164;BME280;48149;51.132;7.178;2023-04-23T08:31:59;97797.56;;;28.23;38.65
62164;BME280;48149;51.132;7.178;2023-04-23T08:34:24;97807.56;;;26.84;41.21
62164;BME280;48149;51.132;7.178;2023-04-23T08:36:50;97806.44;;;26.48;42.30
62164;BME280;48149;51.132;7.178;2023-04-23T08:39:15;97804.50;;;26.85;40.98
62164;BME280;48149;51.132;7.178;2023-04-23T08:41:41;97801.59;;;27.70;40.93
62164;BME280;48149;51.132;7.178;2023-04-23T08:46:35;97820.41;;;27.30;40.70
62164;BME280;48149;51.132;7.178;2023-04-23T08:49:01;97819.44;;;28.53;39.93
62164;BME280;48149;51.132;7.178;2023-04-23T08:51:26;97819.31;;;26.43;38.91
62164;BME280;48149;51.132;7.178;2023-04-23T08:53:55;97812.84;;;28.19;40.24
62164;BME280;48149;51.132;7.178;2023-04-23T08:56:21;97817.19;;;28.39;39.38
62164;BME280;48149;51.132;7.178;2023-04-23T08:58:47;97807.22;;;27.81;38.69
62164;BME280;48149;51.132;7.178;2023-04-23T09:01:13;97808.88;;;26.90;39.72
62164;BME280;48149;51.132;7.178;2023-04-23T09:03:39;97807.88;;;26.46;40.57
62164;BME280;48149;51.132;7.178;2023-04-23T09:06:04;97811.53;;;27.42;38.98
62164;BME280;48149;51.132;7.178;2023-04-23T09:08:30;97804.75;;;27.32;37.61
62164;BME280;48149;51.132;7.178;2023-04-23T09:10:56;97800.59;;;29.23;35.73
62164;BME280;48149;51.132;7.178;2023-04-23T09:13:24;97801.47;;;27.51;36.39
62164;BME280;48149;51.132;7.178;2023-04-23T09:15:50;97798.69;;;29.61;34.79
62164;BME280;48149;51.132;7.178;2023-04-23T09:18:16;97791.44;;;29.66;33.48
62164;BME280;48149;51.132;7.178;2023-04-23T09:20:43;97790.34;;;29.12;35.02
62164;BME280;48149;51.132;7.178;2023-04-23T09:23:12;97787.41;;;29.56;34.90
62164;BME280;48149;51.132;7.178;2023-04-23T09:25:37;97797.41;;;29.75;34.42
62164;BME280;48149;51.132;7.178;2023-04-23T09:28:02;97786.69;;;27.33;37.52
62164;BME280;48149;51.132;7.178;2023-04-23T09:30:31;97778.59;;;27.73;36.97
62164;BME280;48149;51.132;7.178;2023-04-23T09:35:33;97779.56;;;32.31;30.11
62164;BME280;48149;51.132;7.178;2023-04-23T09:38:00;97782.34;;;32.93;31.06
62164;BME280;48149;51.132;7.178;2023-04-23T09:40:29;97771.53;;;33.00;28.45
62164;BME280;48149;51.132;7.178;2023-04-23T09:45:29;97778.19;;;28.49;35.34
62164;BME280;48149;51.132;7.178;2023-04-23T09:47:57;97774.03;;;32.61;31.86
62164;BME280;48149;51.132;7.178;2023-04-23T09:50:35;97776.13;;;29.92;32.72
62164;BME280;48149;51.132;7.178;2023-04-23T09:53:03;97771.19;;;30.96;29.80
62164;BME280;48149;51.132;7.178;2023-04-23T09:55:32;97776.94;;;28.62;31.14
62164;BME280;48149;51.132;7.178;2023-04-23T09:58:06;97747.53;;;31.19;30.53
62164;BME280;48149;51.132;7.178;2023-04-23T10:00:34;97761.09;;;29.49;32.49
62164;BME280;48149;51.132;7.178;2023-04-23T10:05:28;97761.94;;;28.96;34.58
62164;BME280;48149;51.132;7.178;2023-04-23T10:07:56;97754.69;;;28.30;34.28
62164;BME280;48149;51.132;7.178;2023-04-23T10:10:22;97761.19;;;29.56;33.24
62164;BME280;48149;51.132;7.178;2023-04-23T10:12:47;97740.75;;;30.73;32.74
62164;BME280;48149;51.132;7.178;2023-04-23T10:15:16;97742.25;;;30.70;32.48
62164;BME280;48149;51.132;7.178;2023-04-23T10:17:41;97738.97;;;32.35;29.76
62164;BME280;48149;51.132;7.178;2023-04-23T10:33:32;97741.78;;;29.28;33.77
62164;BME280;48149;51.132;7.178;2023-04-23T10:35:58;97738.50;;;30.26;32.93
62164;BME280;48149;51.132;7.178;2023-04-23T10:38:24;97733.94;;;28.66;33.31
62164;BME280;48149;51.132;7.178;2023-04-23T10:40:52;97743.88;;;29.99;33.41
62164;BME280;48149;51.132;7.178;2023-04-23T10:43:19;97740.09;;;29.01;32.25
62164;BME280;48149;51.132;7.178;2023-04-23T10:45:45;97741.41;;;28.72;32.48
62164;BME280;48149;51.132;7.178;2023-04-23T10:48:10;97731.69;;;30.35;30.95
62164;BME280;48149;51.132;7.178;2023-04-23T10:50:35;97726.50;;;28.43;31.96
62164;BME280;48149;51.132;7.178;2023-04-23T10:55:29;97713.13;;;29.01;31.21
62164;BME280;48149;51.132;7.178;2023-04-23T10:57:59;97710.00;;;30.54;28.70
62164;BME280;48149;51.132;7.178;2023-04-23T11:00:25;97708.88;;;30.55;29.33
62164;BME280;48149;51.132;7.178;2023-04-23T11:02:50;97705.44;;;29.41;28.59
62164;BME280;48149;51.132;7.178;2023-04-23T11:05:17;97690.97;;;29.95;27.43
62164;BME280;48149;51.132;7.178;2023-04-23T11:07:44;97711.72;;;29.26;28.95
62164;BME280;48149;51.132;7.178;2023-04-23T11:10:25;97709.38;;;28.67;29.72
62164;BME280;48149;51.132;7.178;2023-04-23T11:12:51;97697.09;;;28.35;30.56
62164;BME280;48149;51.132;7.178;2023-04-23T11:15:17;97699.13;;;27.60;30.04
62164;BME280;48149;51.132;7.178;2023-04-23T11:20:18;97709.34;;;26.59;31.23
62164;BME280;48149;51.132;7.178;2023-04-23T11:25:19;97682.41;;;31.75;27.02
62164;BME280;48149;51.132;7.178;2023-04-23T11:27:46;97681.44;;;33.63;25.05
62164;BME280;48149;51.132;7.178;2023-04-23T11:32:38;97674.66;;;34.84;23.73
62164;BME280;48149;51.132;7.178;2023-04-23T11:35:03;97668.47;;;33.03;23.87
62164;BME280;48149;51.132;7.178;2023-04-23T11:37:29;97659.53;;;32.92;23.93
62164;BME280;48149;51.132;7.178;2023-04-23T11:39:54;97657.72;;;33.28;24.76
62164;BME280;48149;51.132;7.178;2023-04-23T11:42:20;97655.03;;;31.43;26.25
62164;BME280;48149;51.132;7.178;2023-04-23T11:44:45;97663.91;;;29.04;27.82
62164;BME280;48149;51.132;7.178;2023-04-23T11:47:12;97645.41;;;29.44;28.02
62164;BME280;48149;51.132;7.178;2023-04-23T11:49:38;97648.34;;;29.58;28.56
62164;BME280;48149;51.132;7.178;2023-04-23T11:52:03;97651.47;;;31.32;26.97
62164;BME280;48149;51.132;7.178;2023-04-23T11:54:29;97658.31;;;28.93;27.80
62164;BME280;48149;51.132;7.178;2023-04-23T11:56:55;97654.34;;;29.06;28.69
62164;BME280;48149;51.132;7.178;2023-04-23T11:59:22;97640.63;;;28.03;29.41
62164;BME280;48149;51.132;7.178;2023-04-23T12:01:50;97644.22;;;28.81;28.71
62164;BME280;48149;51.132;7.178;2023-04-23T12:04:22;97645.03;;;28.12;28.91
62164;BME280;48149;51.132;7.178;2023-04-23T12:06:48;97641.53;;;27.61;31.62
62164;BME280;48149;51.132;7.178;2023-04-23T12:09:14;97644.28;;;29.91;28.84
62164;BME280;48149;51.132;7.178;2023-04-23T12:11:40;97630.53;;;30.29;28.58
62164;BME280;48149;51.132;7.178;2023-04-23T12:14:06;97641.06;;;33.58;26.13
62164;BME280;48149;51.132;7.178;2023-04-23T12:16:42;97630.63;;;33.70;25.67
62164;BME280;48149;51.132;7.178;2023-04-23T12:19:08;97626.72;;;33.22;25.10
62164;BME280;48149;51.132;7.178;2023-04-23T12:21:34;97624.47;;;32.41;24.23
62164;BME280;48149;51.132;7.178;2023-04-23T12:23:59;97617.22;;;35.37;22.87
62164;BME280;48149;51.132;7.178;2023-04-23T12:26:27;97612.66;;;34.47;24.10
62164;BME280;48149;51.132;7.178;2023-04-23T12:28:54;97605.03;;;35.52;22.65
62164;BME280;48149;51.132;7.178;2023-04-23T12:31:24;97600.63;;;32.79;25.49
62164;BME280;48149;51.132;7.178;2023-04-23T12:33:57;97594.44;;;32.74;26.02
62164;BME280;48149;51.132;7.178;2023-04-23T12:36:25;97593.41;;;33.50;25.05
62164;BME280;48149;51.132;7.178;2023-04-23T12:38:51;97592.56;;;30.41;26.76
62164;BME280;48149;51.132;7.178;2023-04-23T12:41:16;97586.41;;;33.59;23.72
62164;BME280;48149;51.132;7.178;2023-04-23T12:43:41;97583.31;;;33.78;23.85
62164;BME280;48149;51.132;7.178;2023-04-23T12:46:07;97589.50;;;33.26;24.26
62164;BME280;48149;51.132;7.178;2023-04-23T12:48:33;97589.06;;;34.16;23.56
62164;BME280;48149;51.132;7.178;2023-04-23T12:50:58;97582.69;;;34.58;21.80
62164;BME280;48149;51.132;7.178;2023-04-23T12:53:23;97566.03;;;36.74;19.25
62164;BME280;48149;51.132;7.178;2023-04-23T12:55:48;97580.25;;;37.16;19.06
62164;BME280;48149;51.132;7.178;2023-04-23T12:58:14;97580.19;;;33.84;21.78
62164;BME280;48149;51.132;7.178;2023-04-23T13:00:39;97572.31;;;37.71;19.20
62164;BME280;48149;51.132;7.178;2023-04-23T13:03:04;97567.56;;;35.74;19.87
62164;BME280;48149;51.132;7.178;2023-04-23T13:05:30;97578.81;;;34.62;21.69
62164;BME280;48149;51.132;7.178;2023-04-23T13:07:55;97558.31;;;34.40;22.37
62164;BME280;48149;51.132;7.178;2023-04-23T13:10:21;97551.47;;;33.86;22.09
62164;BME280;48149;51.132;7.178;2023-04-23T13:12:46;97563.81;;;32.70;22.75
62164;BME280;48149;51.132;7.178;2023-04-23T13:15:11;97550.56;;;35.59;21.22
62164;BME280;48149;51.132;7.178;2023-04-23T13:17:37;97542.59;;;35.34;21.29
62164;BME280;48149;51.132;7.178;2023-04-23T13:20:02;97535.06;;;34.32;21.56
62164;BME280;48149;51.132;7.178;2023-04-23T13:22:29;97534.78;;;36.79;20.77
62164;BME280;48149;51.132;7.178;2023-04-23T13:24:54;97535.97;;;33.87;21.48
62164;BME280;48149;51.132;7.178;2023-04-23T13:27:23;97528.66;;;33.20;22.06
62164;BME280;48149;51.132;7.178;2023-04-23T13:29:49;97525.72;;;35.50;21.29
62164;BME280;48149;51.132;7.178;2023-04-23T13:32:14;97521.56;;;37.27;19.12
62164;BME280;48149;51.132;7.178;2023-04-23T13:34:40;97512.06;;;35.95;21.73
62164;BME280;48149;51.132;7.178;2023-04-23T13:37:05;97514.63;;;34.79;21.04
62164;BME280;48149;51.132;7.178;2023-04-23T13:39:33;97524.22;;;32.41;23.22
62164;BME280;48149;51.132;7.178;2023-04-23T13:41:58;97506.78;;;34.08;22.49
62164;BME280;48149;51.132;7.178;2023-04-23T13:44:23;97512.00;;;33.11;23.36